sensor_id;sensor_type;location;lat;lon;timestamp;temperature;humidity
6662;DHT22;3367;48.714;8.994;2023-10-19T00:00:56;11.60;99.90
6662;DHT22;3367;48.714;8.994;2023-10-19T00:03:24;11.70;99.90
6662;DHT22;3367;48.714;8.994;2023-10-19T00:05:57;11.70;99.90
6662;DHT22;3367;48.714;8.994;2023-10-19T00:08:26;11.70;99.90
6662;DHT22;3367;48.714;8.994;2023-10-19T00:11:02;11.80;99.90
6662;DHT22;3367;48.714;8.994;2023-10-19T00:13:35;11.80;99.90
6662;DHT22;3367;48.714;8.994;2023-10-19T00:16:05;11.80;99.90
6662;DHT22;3367;48.714;8.994;2023-10-19T00:18:40;11.90;99.90
6662;DHT22;3367;48.714;8.994;2023-10-19T00:21:09;11.90;99.90
6662;DHT22;3367;48.714;8.994;2023-10-19T00:23:46;12.00;99.90
6662;DHT22;3367;48.714;8.994;2023-10-19T00:26:15;12.00;99.90
6662;DHT22;3367;48.714;8.994;2023-10-19T00:28:45;12.00;1.00
6662;DHT22;3367;48.714;8.994;2023-10-19T00:31:15;12.00;1.00
6662;DHT22;3367;48.714;8.994;2023-10-19T00:33:44;12.00;1.00
6662;DHT22;3367;48.714;8.994;2023-10-19T00:36:11;12.00;1.00
6662;DHT22;3367;48.714;8.994;2023-10-19T00:38:42;12.10;1.00
6662;DHT22;3367;48.714;8.994;2023-10-19T00:41:20;12.10;1.00
6662;DHT22;3367;48.714;8.994;2023-10-19T00:43:49;12.10;1.00
6662;DHT22;3367;48.714;8.994;2023-10-19T00:46:25;12.20;1.00
6662;DHT22;3367;48.714;8.994;2023-10-19T00:49:00;12.10;1.00
6662;DHT22;3367;48.714;8.994;2023-10-19T00:51:36;12.10;1.00
6662;DHT22;3367;48.714;8.994;2023-10-19T00:54:18;12.20;1.00
6662;DHT22;3367;48.714;8.994;2023-10-19T00:56:53;12.10;1.00
6662;DHT22;3367;48.714;8.994;2023-10-19T00:59:22;12.20;1.00
6662;DHT22;3367;48.714;8.994;2023-10-19T01:01:50;12.30;1.00
6662;DHT22;3367;48.714;8.994;2023-10-19T01:04:19;12.20;1.00
6662;DHT22;3367;48.714;8.994;2023-10-19T01:06:50;12.20;1.00
6662;DHT22;3367;48.714;8.994;2023-10-19T01:09:39;12.30;1.00
6662;DHT22;3367;48.714;8.994;2023-10-19T01:12:13;12.30;1.00
6662;DHT22;3367;48.714;8.994;2023-10-19T01:15:09;12.40;1.00
6662;DHT22;3367;48.714;8.994;2023-10-19T01:17:38;12.30;1.00
6662;DHT22;3367;48.714;8.994;2023-10-19T01:20:09;12.30;1.00
6662;DHT22;3367;48.714;8.994;2023-10-19T01:22:54;12.30;1.00
6662;DHT22;3367;48.714;8.994;2023-10-19T01:25:44;12.20;1.00
6662;DHT22;3367;48.714;8.994;2023-10-19T01:28:15;12.30;1.00
6662;DHT22;3367;48.714;8.994;2023-10-19T01:30:43;12.20;1.00
6662;DHT22;3367;48.714;8.994;2023-10-19T01:33:10;12.20;1.00
6662;DHT22;3367;48.714;8.994;2023-10-19T01:35:41;12.10;1.00
6662;DHT22;3367;48.714;8.994;2023-10-19T01:38:31;12.20;1.00
6662;DHT22;3367;48.714;8.994;2023-10-19T01:40:58;12.20;1.00
6662;DHT22;3367;48.714;8.994;2023-10-19T01:43:25;12.20;1.00
6662;DHT22;3367;48.714;8.994;2023-10-19T01:45:55;12.10;1.00
6662;DHT22;3367;48.714;8.994;2023-10-19T01:48:21;12.10;1.00
6662;DHT22;3367;48.714;8.994;2023-10-19T01:50:59;12.10;1.00
6662;DHT22;3367;48.714;8.994;2023-10-19T01:53:29;12.10;1.00
6662;DHT22;3367;48.714;8.994;2023-10-19T01:55:57;12.00;1.00
6662;DHT22;3367;48.714;8.994;2023-10-19T01:58:23;12.00;1.00
6662;DHT22;3367;48.714;8.994;2023-10-19T02:00:52;11.90;1.00
6662;DHT22;3367;48.714;8.994;2023-10-19T02:03:20;12.00;1.00
6662;DHT22;3367;48.714;8.994;2023-10-19T02:05:57;12.00;1.00
6662;DHT22;3367;48.714;8.994;2023-10-19T02:08:29;12.00;1.00
6662;DHT22;3367;48.714;8.994;2023-10-19T02:10:58;12.00;1.00
6662;DHT22;3367;48.714;8.994;2023-10-19T02:13:27;11.90;1.00
6662;DHT22;3367;48.714;8.994;2023-10-19T02:15:57;12.00;1.00
6662;DHT22;3367;48.714;8.994;2023-10-19T02:18:29;11.90;1.00
6662;DHT22;3367;48.714;8.994;2023-10-19T02:21:01;11.90;1.00
6662;DHT22;3367;48.714;8.994;2023-10-19T02:23:33;12.00;1.00
6662;DHT22;3367;48.714;8.994;2023-10-19T02:26:03;11.80;1.00
6662;DHT22;3367;48.714;8.994;2023-10-19T02:28:36;11.90;1.00
6662;DHT22;3367;48.714;8.994;2023-10-19T02:31:07;11.70;1.00
6662;DHT22;3367;48.714;8.994;2023-10-19T02:33:44;11.70;1.00
6662;DHT22;3367;48.714;8.994;2023-10-19T02:36:17;11.70;1.00
6662;DHT22;3367;48.714;8.994;2023-10-19T02:38:46;11.60;1.00
6662;DHT22;3367;48.714;8.994;2023-10-19T02:41:15;11.60;1.00
6662;DHT22;3367;48.714;8.994;2023-10-19T02:43:41;11.60;1.00
6662;DHT22;3367;48.714;8.994;2023-10-19T02:46:12;11.60;1.00
6662;DHT22;3367;48.714;8.994;2023-10-19T02:48:47;11.40;1.00
6662;DHT22;3367;48.714;8.994;2023-10-19T02:51:16;11.50;1.00
6662;DHT22;3367;48.714;8.994;2023-10-19T02:53:55;11.50;1.00
6662;DHT22;3367;48.714;8.994;2023-10-19T02:56:25;11.50;1.00
6662;DHT22;3367;48.714;8.994;2023-10-19T02:58:52;11.40;1.00
6662;DHT22;3367;48.714;8.994;2023-10-19T03:01:20;11.30;1.00
6662;DHT22;3367;48.714;8.994;2023-10-19T03:03:56;11.40;1.00
6662;DHT22;3367;48.714;8.994;2023-10-19T03:06:26;11.40;1.00
6662;DHT22;3367;48.714;8.994;2023-10-19T03:09:04;11.40;1.00
6662;DHT22;3367;48.714;8.994;2023-10-19T03:11:40;11.40;1.00
6662;DHT22;3367;48.714;8.994;2023-10-19T03:14:06;11.50;10.60
6662;DHT22;3367;48.714;8.994;2023-10-19T03:16:37;11.50;1.00
6662;DHT22;3367;48.714;8.994;2023-10-19T03:19:03;11.50;1.00
6662;DHT22;3367;48.714;8.994;2023-10-19T03:21:30;11.40;1.00
6662;DHT22;3367;48.714;8.994;2023-10-19T03:24:00;11.30;1.00
6662;DHT22;3367;48.714;8.994;2023-10-19T03:26:40;11.40;1.00
6662;DHT22;3367;48.714;8.994;2023-10-19T03:29:14;11.30;1.00
6662;DHT22;3367;48.714;8.994;2023-10-19T03:31:41;11.30;1.00
6662;DHT22;3367;48.714;8.994;2023-10-19T03:34:10;11.30;1.00
6662;DHT22;3367;48.714;8.994;2023-10-19T03:36:38;11.30;16.90
6662;DHT22;3367;48.714;8.994;2023-10-19T03:39:10;11.30;42.70
6662;DHT22;3367;48.714;8.994;2023-10-19T03:41:41;11.30;45.60
6662;DHT22;3367;48.714;8.994;2023-10-19T03:44:13;11.30;62.10
6662;DHT22;3367;48.714;8.994;2023-10-19T03:46:44;11.30;57.80
6662;DHT22;3367;48.714;8.994;2023-10-19T03:49:20;11.30;66.20
6662;DHT22;3367;48.714;8.994;2023-10-19T03:51:47;11.20;69.00
6662;DHT22;3367;48.714;8.994;2023-10-19T03:54:28;11.20;78.40
6662;DHT22;3367;48.714;8.994;2023-10-19T03:56:55;11.20;99.90
6662;DHT22;3367;48.714;8.994;2023-10-19T03:59:23;11.20;99.90
6662;DHT22;3367;48.714;8.994;2023-10-19T04:02:00;11.30;99.90
6662;DHT22;3367;48.714;8.994;2023-10-19T04:04:36;11.30;99.90
6662;DHT22;3367;48.714;8.994;2023-10-19T04:07:10;11.30;99.90
6662;DHT22;3367;48.714;8.994;2023-10-19T04:09:48;11.30;99.90
6662;DHT22;3367;48.714;8.994;2023-10-19T04:12:37;11.30;99.90
6662;DHT22;3367;48.714;8.994;2023-10-19T04:15:08;11.20;99.90
6662;DHT22;3367;48.714;8.994;2023-10-19T04:17:44;11.20;99.90
6662;DHT22;3367;48.714;8.994;2023-10-19T04:20:13;11.20;99.90
6662;DHT22;3367;48.714;8.994;2023-10-19T04:22:54;11.20;99.90
6662;DHT22;3367;48.714;8.994;2023-10-19T04:25:24;11.30;99.90
6662;DHT22;3367;48.714;8.994;2023-10-19T04:27:52;11.40;99.90
6662;DHT22;3367;48.714;8.994;2023-10-19T04:30:19;11.40;99.90
6662;DHT22;3367;48.714;8.994;2023-10-19T04:32:49;11.50;99.90
6662;DHT22;3367;48.714;8.994;2023-10-19T04:35:20;11.50;99.90
6662;DHT22;3367;48.714;8.994;2023-10-19T04:37:51;11.50;99.90
6662;DHT22;3367;48.714;8.994;2023-10-19T04:40:18;11.50;99.90
6662;DHT22;3367;48.714;8.994;2023-10-19T04:42:58;11.50;99.90
6662;DHT22;3367;48.714;8.994;2023-10-19T04:45:31;11.50;99.90
6662;DHT22;3367;48.714;8.994;2023-10-19T04:48:00;11.50;99.90
6662;DHT22;3367;48.714;8.994;2023-10-19T04:50:29;11.50;99.90
6662;DHT22;3367;48.714;8.994;2023-10-19T04:52:59;11.50;99.90
6662;DHT22;3367;48.714;8.994;2023-10-19T04:55:29;11.40;99.90
6662;DHT22;3367;48.714;8.994;2023-10-19T04:58:04;11.50;99.90
6662;DHT22;3367;48.714;8.994;2023-10-19T05:00:31;11.50;99.90
6662;DHT22;3367;48.714;8.994;2023-10-19T05:02:58;11.60;99.90
6662;DHT22;3367;48.714;8.994;2023-10-19T05:05:27;11.60;99.90
6662;DHT22;3367;48.714;8.994;2023-10-19T05:07:53;11.70;1.00
6662;DHT22;3367;48.714;8.994;2023-10-19T05:10:20;11.80;1.00
6662;DHT22;3367;48.714;8.994;2023-10-19T05:12:47;11.70;1.00
6662;DHT22;3367;48.714;8.994;2023-10-19T05:15:15;11.80;1.00
6662;DHT22;3367;48.714;8.994;2023-10-19T05:17:50;11.80;1.00
6662;DHT22;3367;48.714;8.994;2023-10-19T05:20:16;11.70;1.00
6662;DHT22;3367;48.714;8.994;2023-10-19T05:22:44;11.70;1.00
6662;DHT22;3367;48.714;8.994;2023-10-19T05:25:10;11.70;1.00
6662;DHT22;3367;48.714;8.994;2023-10-19T05:27:37;11.60;1.00
6662;DHT22;3367;48.714;8.994;2023-10-19T05:30:05;11.70;1.00
6662;DHT22;3367;48.714;8.994;2023-10-19T05:32:37;11.60;1.00
6662;DHT22;3367;48.714;8.994;2023-10-19T05:35:04;11.60;1.00
6662;DHT22;3367;48.714;8.994;2023-10-19T05:37:31;11.60;1.00
6662;DHT22;3367;48.714;8.994;2023-10-19T05:40:00;11.60;1.00
6662;DHT22;3367;48.714;8.994;2023-10-19T05:42:33;11.60;1.00
6662;DHT22;3367;48.714;8.994;2023-10-19T05:45:01;11.60;1.00
6662;DHT22;3367;48.714;8.994;2023-10-19T05:47:31;11.60;1.00
6662;DHT22;3367;48.714;8.994;2023-10-19T05:50:03;11.70;1.00
6662;DHT22;3367;48.714;8.994;2023-10-19T05:52:32;11.70;1.00
6662;DHT22;3367;48.714;8.994;2023-10-19T05:54:59;11.70;1.00
6662;DHT22;3367;48.714;8.994;2023-10-19T05:57:26;11.70;1.00
6662;DHT22;3367;48.714;8.994;2023-10-19T05:59:52;11.70;1.00
6662;DHT22;3367;48.714;8.994;2023-10-19T06:02:22;11.80;1.00
6662;DHT22;3367;48.714;8.994;2023-10-19T06:04:51;11.80;1.00
6662;DHT22;3367;48.714;8.994;2023-10-19T06:07:22;11.90;1.00
6662;DHT22;3367;48.714;8.994;2023-10-19T06:09:50;11.90;1.00
6662;DHT22;3367;48.714;8.994;2023-10-19T06:12:17;11.90;1.00
6662;DHT22;3367;48.714;8.994;2023-10-19T06:14:44;11.90;1.00
6662;DHT22;3367;48.714;8.994;2023-10-19T06:17:10;11.90;1.00
6662;DHT22;3367;48.714;8.994;2023-10-19T06:19:44;12.00;1.00
6662;DHT22;3367;48.714;8.994;2023-10-19T06:22:11;12.00;1.00
6662;DHT22;3367;48.714;8.994;2023-10-19T06:24:42;12.00;1.00
6662;DHT22;3367;48.714;8.994;2023-10-19T06:27:09;12.10;1.00
6662;DHT22;3367;48.714;8.994;2023-10-19T06:29:38;12.10;1.00
6662;DHT22;3367;48.714;8.994;2023-10-19T06:32:08;12.10;1.00
6662;DHT22;3367;48.714;8.994;2023-10-19T06:34:35;12.20;1.00
6662;DHT22;3367;48.714;8.994;2023-10-19T06:37:10;12.20;1.00
6662;DHT22;3367;48.714;8.994;2023-10-19T06:39:37;12.20;1.00
6662;DHT22;3367;48.714;8.994;2023-10-19T06:42:10;12.30;1.00
6662;DHT22;3367;48.714;8.994;2023-10-19T06:44:40;12.30;1.00
6662;DHT22;3367;48.714;8.994;2023-10-19T06:47:11;12.30;1.00
6662;DHT22;3367;48.714;8.994;2023-10-19T06:49:40;12.40;1.00
6662;DHT22;3367;48.714;8.994;2023-10-19T06:52:07;12.50;1.00
6662;DHT22;3367;48.714;8.994;2023-10-19T06:54:42;12.60;1.00
6662;DHT22;3367;48.714;8.994;2023-10-19T06:57:14;12.60;1.00
6662;DHT22;3367;48.714;8.994;2023-10-19T06:59:40;12.70;1.00
6662;DHT22;3367;48.714;8.994;2023-10-19T07:02:08;12.70;99.90
6662;DHT22;3367;48.714;8.994;2023-10-19T07:04:35;12.70;99.90
6662;DHT22;3367;48.714;8.994;2023-10-19T07:07:08;12.80;99.90
6662;DHT22;3367;48.714;8.994;2023-10-19T07:09:40;12.80;99.90
6662;DHT22;3367;48.714;8.994;2023-10-19T07:12:16;12.80;99.90
6662;DHT22;3367;48.714;8.994;2023-10-19T07:14:43;12.80;99.90
6662;DHT22;3367;48.714;8.994;2023-10-19T07:17:10;12.90;99.90
6662;DHT22;3367;48.714;8.994;2023-10-19T07:19:43;12.90;99.90
6662;DHT22;3367;48.714;8.994;2023-10-19T07:22:17;12.90;99.90
6662;DHT22;3367;48.714;8.994;2023-10-19T07:24:47;13.00;99.90
6662;DHT22;3367;48.714;8.994;2023-10-19T07:27:15;13.00;93.50
6662;DHT22;3367;48.714;8.994;2023-10-19T07:29:44;13.10;58.80
6662;DHT22;3367;48.714;8.994;2023-10-19T07:32:11;13.20;1.00
6662;DHT22;3367;48.714;8.994;2023-10-19T07:34:39;13.20;1.00
6662;DHT22;3367;48.714;8.994;2023-10-19T07:37:09;13.30;1.00
6662;DHT22;3367;48.714;8.994;2023-10-19T07:39:44;13.40;1.00
6662;DHT22;3367;48.714;8.994;2023-10-19T07:42:11;13.50;1.00
6662;DHT22;3367;48.714;8.994;2023-10-19T07:44:45;13.50;1.00
6662;DHT22;3367;48.714;8.994;2023-10-19T07:47:12;13.60;1.00
6662;DHT22;3367;48.714;8.994;2023-10-19T07:49:39;13.70;1.00
6662;DHT22;3367;48.714;8.994;2023-10-19T07:52:06;13.80;99.90
6662;DHT22;3367;48.714;8.994;2023-10-19T07:54:42;13.80;99.90
6662;DHT22;3367;48.714;8.994;2023-10-19T07:57:11;13.90;97.60
6662;DHT22;3367;48.714;8.994;2023-10-19T07:59:41;13.90;21.90
6662;DHT22;3367;48.714;8.994;2023-10-19T08:02:09;14.00;1.00
6662;DHT22;3367;48.714;8.994;2023-10-19T08:04:36;14.00;1.00
6662;DHT22;3367;48.714;8.994;2023-10-19T08:07:02;14.00;1.00
6662;DHT22;3367;48.714;8.994;2023-10-19T08:09:30;14.10;1.00
6662;DHT22;3367;48.714;8.994;2023-10-19T08:12:03;14.10;1.00
6662;DHT22;3367;48.714;8.994;2023-10-19T08:14:40;14.20;1.00
6662;DHT22;3367;48.714;8.994;2023-10-19T08:17:11;14.30;1.00
6662;DHT22;3367;48.714;8.994;2023-10-19T08:19:41;14.40;1.00
6662;DHT22;3367;48.714;8.994;2023-10-19T08:22:07;14.50;1.00
6662;DHT22;3367;48.714;8.994;2023-10-19T08:24:40;14.70;1.00
6662;DHT22;3367;48.714;8.994;2023-10-19T08:27:08;14.90;99.90
6662;DHT22;3367;48.714;8.994;2023-10-19T08:29:39;15.00;99.90
6662;DHT22;3367;48.714;8.994;2023-10-19T08:32:10;15.20;1.00
6662;DHT22;3367;48.714;8.994;2023-10-19T08:34:43;15.20;1.00
6662;DHT22;3367;48.714;8.994;2023-10-19T08:37:09;15.20;1.00
6662;DHT22;3367;48.714;8.994;2023-10-19T08:39:42;15.20;1.00
6662;DHT22;3367;48.714;8.994;2023-10-19T08:42:09;15.20;1.00
6662;DHT22;3367;48.714;8.994;2023-10-19T08:44:36;15.20;1.00
6662;DHT22;3367;48.714;8.994;2023-10-19T08:47:07;15.20;1.00
6662;DHT22;3367;48.714;8.994;2023-10-19T08:49:35;15.30;1.00
6662;DHT22;3367;48.714;8.994;2023-10-19T08:52:07;15.30;1.00
6662;DHT22;3367;48.714;8.994;2023-10-19T08:54:34;15.40;1.00
6662;DHT22;3367;48.714;8.994;2023-10-19T08:57:05;15.40;1.00
6662;DHT22;3367;48.714;8.994;2023-10-19T08:59:32;15.40;99.90
6662;DHT22;3367;48.714;8.994;2023-10-19T09:02:00;15.50;1.00
6662;DHT22;3367;48.714;8.994;2023-10-19T09:04:30;15.50;1.00
6662;DHT22;3367;48.714;8.994;2023-10-19T09:06:59;15.60;99.90
6662;DHT22;3367;48.714;8.994;2023-10-19T09:09:34;15.60;99.90
6662;DHT22;3367;48.714;8.994;2023-10-19T09:12:06;15.70;99.90
6662;DHT22;3367;48.714;8.994;2023-10-19T09:14:34;15.90;99.90
6662;DHT22;3367;48.714;8.994;2023-10-19T09:17:02;15.90;99.90
6662;DHT22;3367;48.714;8.994;2023-10-19T09:19:40;16.00;99.90
6662;DHT22;3367;48.714;8.994;2023-10-19T09:22:10;16.20;99.90
6662;DHT22;3367;48.714;8.994;2023-10-19T09:24:44;16.20;99.90
6662;DHT22;3367;48.714;8.994;2023-10-19T09:27:11;16.40;99.90
6662;DHT22;3367;48.714;8.994;2023-10-19T09:29:38;16.50;1.00
6662;DHT22;3367;48.714;8.994;2023-10-19T09:32:07;16.60;1.00
6662;DHT22;3367;48.714;8.994;2023-10-19T09:34:37;16.50;1.00
6662;DHT22;3367;48.714;8.994;2023-10-19T09:37:11;16.70;1.00
6662;DHT22;3367;48.714;8.994;2023-10-19T09:39:38;16.70;1.00
6662;DHT22;3367;48.714;8.994;2023-10-19T09:42:09;16.80;1.00
6662;DHT22;3367;48.714;8.994;2023-10-19T09:44:41;16.80;1.00
6662;DHT22;3367;48.714;8.994;2023-10-19T09:47:11;16.70;1.00
6662;DHT22;3367;48.714;8.994;2023-10-19T09:49:43;16.70;1.00
6662;DHT22;3367;48.714;8.994;2023-10-19T09:52:14;16.80;1.00
6662;DHT22;3367;48.714;8.994;2023-10-19T09:54:50;16.90;1.00
6662;DHT22;3367;48.714;8.994;2023-10-19T09:57:44;17.00;1.00
6662;DHT22;3367;48.714;8.994;2023-10-19T10:00:13;17.00;1.00
6662;DHT22;3367;48.714;8.994;2023-10-19T10:02:42;16.90;1.00
6662;DHT22;3367;48.714;8.994;2023-10-19T10:05:46;16.90;1.00
6662;DHT22;3367;48.714;8.994;2023-10-19T10:08:34;16.90;1.00
6662;DHT22;3367;48.714;8.994;2023-10-19T10:11:15;16.90;1.00
6662;DHT22;3367;48.714;8.994;2023-10-19T10:13:42;17.00;1.00
6662;DHT22;3367;48.714;8.994;2023-10-19T10:16:13;17.10;1.00
6662;DHT22;3367;48.714;8.994;2023-10-19T10:18:40;17.10;99.90
6662;DHT22;3367;48.714;8.994;2023-10-19T10:21:11;17.20;99.90
6662;DHT22;3367;48.714;8.994;2023-10-19T10:23:43;17.20;1.00
6662;DHT22;3367;48.714;8.994;2023-10-19T10:26:11;17.20;99.90
6662;DHT22;3367;48.714;8.994;2023-10-19T10:28:45;17.20;99.90
6662;DHT22;3367;48.714;8.994;2023-10-19T10:31:14;17.20;1.00
6662;DHT22;3367;48.714;8.994;2023-10-19T10:33:43;17.30;1.00
6662;DHT22;3367;48.714;8.994;2023-10-19T10:36:14;17.30;1.00
6662;DHT22;3367;48.714;8.994;2023-10-19T10:38:44;17.40;99.90
6662;DHT22;3367;48.714;8.994;2023-10-19T10:41:11;17.30;99.90
6662;DHT22;3367;48.714;8.994;2023-10-19T10:43:54;17.20;99.90
6662;DHT22;3367;48.714;8.994;2023-10-19T10:46:22;17.10;99.90
6662;DHT22;3367;48.714;8.994;2023-10-19T10:48:53;17.00;1.00
6662;DHT22;3367;48.714;8.994;2023-10-19T10:51:21;16.90;1.00
6662;DHT22;3367;48.714;8.994;2023-10-19T10:53:51;16.80;1.00
6662;DHT22;3367;48.714;8.994;2023-10-19T10:56:21;16.80;1.00
6662;DHT22;3367;48.714;8.994;2023-10-19T10:58:48;16.80;1.00
6662;DHT22;3367;48.714;8.994;2023-10-19T11:01:28;16.70;1.00
6662;DHT22;3367;48.714;8.994;2023-10-19T11:04:08;16.70;1.00
6662;DHT22;3367;48.714;8.994;2023-10-19T11:06:57;16.60;99.90
6662;DHT22;3367;48.714;8.994;2023-10-19T11:09:28;16.60;99.90
6662;DHT22;3367;48.714;8.994;2023-10-19T11:11:57;16.50;99.90
6662;DHT22;3367;48.714;8.994;2023-10-19T11:14:31;16.40;1.00
6662;DHT22;3367;48.714;8.994;2023-10-19T11:17:11;16.40;1.00
6662;DHT22;3367;48.714;8.994;2023-10-19T11:19:42;16.30;1.00
6662;DHT22;3367;48.714;8.994;2023-10-19T11:22:10;16.20;1.00
6662;DHT22;3367;48.714;8.994;2023-10-19T11:24:38;16.10;1.00
6662;DHT22;3367;48.714;8.994;2023-10-19T11:27:09;16.00;1.00
6662;DHT22;3367;48.714;8.994;2023-10-19T11:29:37;16.00;1.00
6662;DHT22;3367;48.714;8.994;2023-10-19T11:32:04;16.00;99.90
6662;DHT22;3367;48.714;8.994;2023-10-19T11:34:31;16.00;99.90
6662;DHT22;3367;48.714;8.994;2023-10-19T11:37:03;15.90;1.00
6662;DHT22;3367;48.714;8.994;2023-10-19T11:39:30;15.80;1.00
6662;DHT22;3367;48.714;8.994;2023-10-19T11:41:59;15.80;1.00
6662;DHT22;3367;48.714;8.994;2023-10-19T11:44:28;15.80;1.00
6662;DHT22;3367;48.714;8.994;2023-10-19T11:46:58;15.80;1.00
6662;DHT22;3367;48.714;8.994;2023-10-19T11:49:27;15.70;1.00
6662;DHT22;3367;48.714;8.994;2023-10-19T11:51:57;15.80;1.00
6662;DHT22;3367;48.714;8.994;2023-10-19T11:54:24;15.80;1.00
6662;DHT22;3367;48.714;8.994;2023-10-19T11:56:53;15.80;1.00
6662;DHT22;3367;48.714;8.994;2023-10-19T11:59:21;15.80;1.00
6662;DHT22;3367;48.714;8.994;2023-10-19T12:01:48;15.80;1.00
6662;DHT22;3367;48.714;8.994;2023-10-19T12:04:15;15.80;1.00
6662;DHT22;3367;48.714;8.994;2023-10-19T12:06:42;15.70;1.00
6662;DHT22;3367;48.714;8.994;2023-10-19T12:09:08;15.70;1.00
6662;DHT22;3367;48.714;8.994;2023-10-19T12:11:41;15.70;1.00
6662;DHT22;3367;48.714;8.994;2023-10-19T12:14:07;15.60;1.00
6662;DHT22;3367;48.714;8.994;2023-10-19T12:16:41;15.50;1.00
6662;DHT22;3367;48.714;8.994;2023-10-19T12:19:08;15.50;54.10
6662;DHT22;3367;48.714;8.994;2023-10-19T12:21:37;15.50;99.90
6662;DHT22;3367;48.714;8.994;2023-10-19T12:24:07;15.50;99.90
6662;DHT22;3367;48.714;8.994;2023-10-19T12:26:34;15.50;99.90
6662;DHT22;3367;48.714;8.994;2023-10-19T12:29:06;15.50;99.90
6662;DHT22;3367;48.714;8.994;2023-10-19T12:31:36;15.50;99.90
6662;DHT22;3367;48.714;8.994;2023-10-19T12:34:09;15.50;99.90
6662;DHT22;3367;48.714;8.994;2023-10-19T12:36:37;15.50;1.00
6662;DHT22;3367;48.714;8.994;2023-10-19T12:39:04;15.50;1.00
6662;DHT22;3367;48.714;8.994;2023-10-19T12:41:32;15.50;1.00
6662;DHT22;3367;48.714;8.994;2023-10-19T12:43:58;15.50;1.00
6662;DHT22;3367;48.714;8.994;2023-10-19T12:46:27;15.40;99.90
6662;DHT22;3367;48.714;8.994;2023-10-19T12:48:58;15.40;99.90
6662;DHT22;3367;48.714;8.994;2023-10-19T12:51:32;15.40;1.00
6662;DHT22;3367;48.714;8.994;2023-10-19T12:54:01;15.40;1.00
6662;DHT22;3367;48.714;8.994;2023-10-19T12:56:29;15.40;1.00
6662;DHT22;3367;48.714;8.994;2023-10-19T12:58:58;15.40;1.00
6662;DHT22;3367;48.714;8.994;2023-10-19T13:01:34;15.30;1.00
6662;DHT22;3367;48.714;8.994;2023-10-19T13:04:01;15.30;1.00
6662;DHT22;3367;48.714;8.994;2023-10-19T13:06:43;15.30;1.00
6662;DHT22;3367;48.714;8.994;2023-10-19T13:09:12;15.30;1.00
6662;DHT22;3367;48.714;8.994;2023-10-19T13:11:41;15.30;1.00
6662;DHT22;3367;48.714;8.994;2023-10-19T13:14:09;15.40;1.00
6662;DHT22;3367;48.714;8.994;2023-10-19T13:16:40;15.40;1.00
6662;DHT22;3367;48.714;8.994;2023-10-19T13:19:13;15.50;1.00
6662;DHT22;3367;48.714;8.994;2023-10-19T13:21:42;15.60;1.00
6662;DHT22;3367;48.714;8.994;2023-10-19T13:24:09;15.60;1.00
6662;DHT22;3367;48.714;8.994;2023-10-19T13:26:39;15.60;1.00
6662;DHT22;3367;48.714;8.994;2023-10-19T13:29:10;15.70;1.00
6662;DHT22;3367;48.714;8.994;2023-10-19T13:31:37;15.70;1.00
6662;DHT22;3367;48.714;8.994;2023-10-19T13:34:06;15.70;1.00
6662;DHT22;3367;48.714;8.994;2023-10-19T13:36:35;15.70;1.00
6662;DHT22;3367;48.714;8.994;2023-10-19T13:39:05;15.70;1.00
6662;DHT22;3367;48.714;8.994;2023-10-19T13:41:38;15.70;1.00
6662;DHT22;3367;48.714;8.994;2023-10-19T13:44:07;15.60;1.00
6662;DHT22;3367;48.714;8.994;2023-10-19T13:46:34;15.60;99.90
6662;DHT22;3367;48.714;8.994;2023-10-19T13:49:08;15.50;99.90
6662;DHT22;3367;48.714;8.994;2023-10-19T13:51:35;15.50;99.90
6662;DHT22;3367;48.714;8.994;2023-10-19T13:54:02;15.60;99.90
6662;DHT22;3367;48.714;8.994;2023-10-19T13:56:34;15.60;99.90
6662;DHT22;3367;48.714;8.994;2023-10-19T13:59:01;15.60;99.90
6662;DHT22;3367;48.714;8.994;2023-10-19T14:01:28;15.70;1.00
6662;DHT22;3367;48.714;8.994;2023-10-19T14:04:01;15.70;1.00
6662;DHT22;3367;48.714;8.994;2023-10-19T14:06:28;15.70;1.00
6662;DHT22;3367;48.714;8.994;2023-10-19T14:08:54;15.70;99.90
6662;DHT22;3367;48.714;8.994;2023-10-19T14:11:22;15.70;99.90
6662;DHT22;3367;48.714;8.994;2023-10-19T14:13:50;15.70;99.90
6662;DHT22;3367;48.714;8.994;2023-10-19T14:16:17;15.60;99.90
6662;DHT22;3367;48.714;8.994;2023-10-19T14:18:44;15.60;99.90
6662;DHT22;3367;48.714;8.994;2023-10-19T14:21:14;15.60;99.90
6662;DHT22;3367;48.714;8.994;2023-10-19T14:23:44;15.50;99.90
6662;DHT22;3367;48.714;8.994;2023-10-19T14:26:11;15.50;99.90
6662;DHT22;3367;48.714;8.994;2023-10-19T14:28:39;15.50;99.90
6662;DHT22;3367;48.714;8.994;2023-10-19T14:31:09;15.50;99.90
6662;DHT22;3367;48.714;8.994;2023-10-19T14:33:36;15.50;99.90
6662;DHT22;3367;48.714;8.994;2023-10-19T14:36:04;15.50;99.90
6662;DHT22;3367;48.714;8.994;2023-10-19T14:38:31;15.50;99.90
6662;DHT22;3367;48.714;8.994;2023-10-19T14:41:01;15.50;99.90
6662;DHT22;3367;48.714;8.994;2023-10-19T14:43:28;15.40;99.90
6662;DHT22;3367;48.714;8.994;2023-10-19T14:46:04;15.40;99.90
6662;DHT22;3367;48.714;8.994;2023-10-19T14:48:33;15.40;99.90
6662;DHT22;3367;48.714;8.994;2023-10-19T14:51:03;15.30;99.90
6662;DHT22;3367;48.714;8.994;2023-10-19T14:53:31;15.30;1.00
6662;DHT22;3367;48.714;8.994;2023-10-19T14:55:57;15.30;1.00
6662;DHT22;3367;48.714;8.994;2023-10-19T14:58:24;15.40;1.00
6662;DHT22;3367;48.714;8.994;2023-10-19T15:00:58;15.30;1.00
6662;DHT22;3367;48.714;8.994;2023-10-19T15:03:25;15.30;1.00
6662;DHT22;3367;48.714;8.994;2023-10-19T15:05:56;15.30;1.00
6662;DHT22;3367;48.714;8.994;2023-10-19T15:08:27;15.30;1.00
6662;DHT22;3367;48.714;8.994;2023-10-19T15:10:56;15.30;1.00
6662;DHT22;3367;48.714;8.994;2023-10-19T15:13:33;15.40;1.00
6662;DHT22;3367;48.714;8.994;2023-10-19T15:16:07;15.40;1.00
6662;DHT22;3367;48.714;8.994;2023-10-19T15:18:35;15.30;1.00
6662;DHT22;3367;48.714;8.994;2023-10-19T15:21:07;15.30;1.00
6662;DHT22;3367;48.714;8.994;2023-10-19T15:23:35;15.30;1.00
6662;DHT22;3367;48.714;8.994;2023-10-19T15:26:02;15.30;1.00
6662;DHT22;3367;48.714;8.994;2023-10-19T15:28:29;15.20;1.00
6662;DHT22;3367;48.714;8.994;2023-10-19T15:30:58;15.30;1.00
6662;DHT22;3367;48.714;8.994;2023-10-19T15:33:31;15.20;1.00
6662;DHT22;3367;48.714;8.994;2023-10-19T15:35:58;15.20;1.00
6662;DHT22;3367;48.714;8.994;2023-10-19T15:38:32;15.20;1.00
6662;DHT22;3367;48.714;8.994;2023-10-19T15:41:02;15.20;1.00
6662;DHT22;3367;48.714;8.994;2023-10-19T15:43:35;15.20;1.00
6662;DHT22;3367;48.714;8.994;2023-10-19T15:46:10;15.10;1.00
6662;DHT22;3367;48.714;8.994;2023-10-19T15:48:41;15.10;1.00
6662;DHT22;3367;48.714;8.994;2023-10-19T15:51:08;15.10;1.00
6662;DHT22;3367;48.714;8.994;2023-10-19T15:53:36;15.10;1.00
6662;DHT22;3367;48.714;8.994;2023-10-19T15:56:05;15.00;1.00
6662;DHT22;3367;48.714;8.994;2023-10-19T15:58:31;15.00;1.00
6662;DHT22;3367;48.714;8.994;2023-10-19T16:01:01;15.00;1.70
6662;DHT22;3367;48.714;8.994;2023-10-19T16:03:31;15.00;22.90
6662;DHT22;3367;48.714;8.994;2023-10-19T16:05:58;14.90;48.70
6662;DHT22;3367;48.714;8.994;2023-10-19T16:08:25;14.90;92.90
6662;DHT22;3367;48.714;8.994;2023-10-19T16:10:53;14.90;99.90
6662;DHT22;3367;48.714;8.994;2023-10-19T16:13:20;14.90;99.90
6662;DHT22;3367;48.714;8.994;2023-10-19T16:15:46;14.80;99.90
6662;DHT22;3367;48.714;8.994;2023-10-19T16:18:13;14.80;99.90
6662;DHT22;3367;48.714;8.994;2023-10-19T16:20:41;14.80;99.90
6662;DHT22;3367;48.714;8.994;2023-10-19T16:23:16;14.80;99.90
6662;DHT22;3367;48.714;8.994;2023-10-19T16:25:48;14.80;99.90
6662;DHT22;3367;48.714;8.994;2023-10-19T16:28:16;14.80;99.90
6662;DHT22;3367;48.714;8.994;2023-10-19T16:30:43;14.80;99.90
6662;DHT22;3367;48.714;8.994;2023-10-19T16:33:10;14.70;99.90